Time;durP1;ratioP1;P1;durP2;ratioP2;P2;SDS_P1;SDS_P2;PMS_P1;PMS_P2;Temp;Humidity;BMP_temperature;BMP_pressure;BME280_temperature;BME280_humidity;BME280_pressure;Samples;Min_cycle;Max_cycle;Signal;HPM_P1;HPM_P2
2022/12/05 00:00:50;;;;;;;17.20;8.95;;;;;;;;;;7387023;19;20002;-76
2022/12/05 00:03:15;;;;;;;19.70;7.63;;;;;;;;;;7386424;19;20003;-77
2022/12/05 00:05:41;;;;;;;22.05;8.65;;;;;;;;;;7387023;19;20006;-78
2022/12/05 00:08:06;;;;;;;21.50;9.50;;;;;;;;;;7386714;19;20463;-77
2022/12/05 00:10:35;;;;;;;21.40;9.10;;;;;;;;;;7388131;19;19998;-77
2022/12/05 00:13:00;;;;;;;20.63;9.73;;;;;;;;;;7384056;19;20206;-78
2022/12/05 00:15:25;;;;;;;19.63;8.73;;;;;;;;;;7386444;19;20018;-77
2022/12/05 00:17:51;;;;;;;19.48;9.00;;;;;;;;;;7385527;19;20002;-77
2022/12/05 00:20:16;;;;;;;20.63;9.63;;;;;;;;;;7387846;19;20003;-78
2022/12/05 00:22:42;;;;;;;17.25;8.70;;;;;;;;;;7391644;19;19998;-78
2022/12/05 00:25:08;;;;;;;16.92;7.82;;;;;;;;;;7393611;19;20019;-77
2022/12/05 00:27:34;;;;;;;18.60;8.73;;;;;;;;;;7392017;19;20384;-78
2022/12/05 00:29:59;;;;;;;18.58;8.07;;;;;;;;;;7393621;19;20006;-77
2022/12/05 00:32:26;;;;;;;23.27;9.70;;;;;;;;;;7391251;19;19998;-77
2022/12/05 00:34:52;;;;;;;18.35;8.23;;;;;;;;;;7392823;19;20273;-76
2022/12/05 00:37:17;;;;;;;18.67;8.57;;;;;;;;;;7393158;19;19999;-77
2022/12/05 00:39:42;;;;;;;18.33;7.97;;;;;;;;;;7393762;19;20473;-77
2022/12/05 00:42:08;;;;;;;20.63;9.18;;;;;;;;;;7391791;19;20363;-77
2022/12/05 00:44:33;;;;;;;15.75;7.85;;;;;;;;;;7388881;19;19998;-77
2022/12/05 00:46:58;;;;;;;20.58;8.35;;;;;;;;;;7393713;19;20025;-76
2022/12/05 00:49:24;;;;;;;16.20;7.07;;;;;;;;;;7393898;19;20003;-76
2022/12/05 00:51:49;;;;;;;17.38;7.40;;;;;;;;;;7392070;19;20372;-76
2022/12/05 00:54:16;;;;;;;18.55;8.65;;;;;;;;;;7392968;19;19998;-76
2022/12/05 00:56:43;;;;;;;19.02;9.10;;;;;;;;;;7393696;19;20516;-76
2022/12/05 00:59:13;;;;;;;19.42;7.93;;;;;;;;;;7391272;19;20036;-76
2022/12/05 01:01:42;;;;;;;18.30;8.23;;;;;;;;;;7392203;19;20344;-76
2022/12/05 01:04:11;;;;;;;19.23;8.52;;;;;;;;;;7390685;19;20010;-77
2022/12/05 01:06:37;;;;;;;17.88;7.47;;;;;;;;;;7393372;19;20063;-76
2022/12/05 01:09:03;;;;;;;14.75;7.10;;;;;;;;;;7393317;19;19999;-77
2022/12/05 01:11:29;;;;;;;19.08;7.68;;;;;;;;;;7392590;19;20499;-76
2022/12/05 01:13:55;;;;;;;15.45;7.65;;;;;;;;;;7392688;19;20020;-77
2022/12/05 01:16:28;;;;;;;14.95;6.75;;;;;;;;;;7396014;19;20010;-77
2022/12/05 01:18:55;;;;;;;17.45;8.55;;;;;;;;;;7390840;19;20002;-77
2022/12/05 01:21:20;;;;;;;13.98;7.07;;;;;;;;;;7390310;19;20019;-77
2022/12/05 01:23:46;;;;;;;16.50;7.75;;;;;;;;;;7391949;19;20002;-76
2022/12/05 01:26:14;;;;;;;17.25;7.57;;;;;;;;;;7392132;19;20007;-76
2022/12/05 01:28:40;;;;;;;16.73;7.57;;;;;;;;;;7392563;19;20026;-76
2022/12/05 01:31:09;;;;;;;16.20;6.93;;;;;;;;;;7390289;19;20007;-76
2022/12/05 01:33:34;;;;;;;17.52;7.78;;;;;;;;;;7390938;19;19998;-76
2022/12/05 01:36:01;;;;;;;16.05;7.82;;;;;;;;;;7391787;19;20010;-78
2022/12/05 01:38:27;;;;;;;14.48;6.38;;;;;;;;;;7390215;19;20424;-75
2022/12/05 01:41:04;;;;;;;17.67;7.72;;;;;;;;;;7391367;19;20010;-76
2022/12/05 01:43:30;;;;;;;14.85;6.88;;;;;;;;;;7390875;19;20017;-76
2022/12/05 01:45:56;;;;;;;15.10;7.63;;;;;;;;;;7394611;19;20511;-77
2022/12/05 01:48:26;;;;;;;15.23;7.07;;;;;;;;;;7391384;19;20012;-77
2022/12/05 01:50:52;;;;;;;15.48;6.88;;;;;;;;;;7390523;19;20016;-78
2022/12/05 01:53:18;;;;;;;16.27;7.15;;;;;;;;;;7386791;19;19998;-72
2022/12/05 01:55:46;;;;;;;17.20;6.50;;;;;;;;;;7391711;19;20030;-72
2022/12/05 01:58:12;;;;;;;14.65;6.88;;;;;;;;;;7388603;19;20459;-73
2022/12/05 02:00:38;;;;;;;14.02;6.43;;;;;;;;;;7391481;19;20005;-72
2022/12/05 02:03:08;;;;;;;15.55;7.63;;;;;;;;;;7389024;19;20006;-72
2022/12/05 02:05:35;;;;;;;22.10;8.75;;;;;;;;;;7389754;19;20420;-73
2022/12/05 02:08:04;;;;;;;20.55;7.70;;;;;;;;;;7391345;19;19995;-72
2022/12/05 02:10:39;;;;;;;15.60;7.68;;;;;;;;;;7391613;19;19998;-72
2022/12/05 02:13:31;;;;;;;15.90;7.90;;;;;;;;;;7388711;19;20019;-73
2022/12/05 02:16:18;;;;;;;17.38;7.75;;;;;;;;;;7390749;19;19999;-73
2022/12/05 02:19:01;;;;;;;17.70;7.85;;;;;;;;;;7389068;19;20032;-73
2022/12/05 02:21:44;;;;;;;15.05;7.93;;;;;;;;;;7392669;19;20463;-73
2022/12/05 02:24:32;;;;;;;17.58;8.02;;;;;;;;;;7389994;19;20358;-73
2022/12/05 02:27:10;;;;;;;20.17;8.25;;;;;;;;;;7390550;19;20007;-73
2022/12/05 02:29:47;;;;;;;22.92;8.80;;;;;;;;;;7390584;19;19999;-73
2022/12/05 02:32:24;;;;;;;18.80;8.50;;;;;;;;;;7389202;19;19998;-72
2022/12/05 02:35:02;;;;;;;18.65;8.27;;;;;;;;;;7387788;19;20019;-73
2022/12/05 02:37:35;;;;;;;19.95;9.27;;;;;;;;;;7389558;19;19999;-71
2022/12/05 02:40:19;;;;;;;15.05;7.53;;;;;;;;;;7391680;19;20069;-72
2022/12/05 02:42:57;;;;;;;19.67;7.57;;;;;;;;;;7385647;19;20480;-71
2022/12/05 02:45:26;;;;;;;24.92;8.43;;;;;;;;;;7389584;19;20456;-72
2022/12/05 02:47:52;;;;;;;18.23;8.10;;;;;;;;;;7389865;19;20607;-73
2022/12/05 02:50:25;;;;;;;16.27;7.65;;;;;;;;;;7389618;19;19994;-73
2022/12/05 02:52:55;;;;;;;17.10;7.88;;;;;;;;;;7387689;19;20003;-73
2022/12/05 02:55:22;;;;;;;15.82;7.13;;;;;;;;;;7389610;19;19998;-73
2022/12/05 02:57:53;;;;;;;24.92;8.32;;;;;;;;;;7388529;19;19998;-73
2022/12/05 03:00:18;;;;;;;;;;;;;;;;;;7389915;19;20481;-73
2022/12/05 03:02:44;;;;;;;14.90;6.85;;;;;;;;;;7387001;19;19919;-72
2022/12/05 03:05:27;;;;;;;22.38;7.78;;;;;;;;;;7389044;19;20332;-73
2022/12/05 03:07:55;;;;;;;19.00;7.35;;;;;;;;;;7389389;19;19998;-72
2022/12/05 03:10:27;;;;;;;11.95;6.38;;;;;;;;;;7389015;19;20082;-72
2022/12/05 03:12:56;;;;;;;16.60;6.57;;;;;;;;;;7388359;19;20002;-72
2022/12/05 03:15:40;;;;;;;12.50;5.80;;;;;;;;;;7389599;19;20009;-73
2022/12/05 03:18:14;;;;;;;16.13;6.30;;;;;;;;;;7388060;19;20009;-73
2022/12/05 03:20:47;;;;;;;12.02;5.57;;;;;;;;;;7388766;19;19995;-72
2022/12/05 03:23:20;;;;;;;11.15;5.80;;;;;;;;;;7386695;19;20006;-73
2022/12/05 03:25:52;;;;;;;15.48;7.63;;;;;;;;;;7388782;19;19991;-72
2022/12/05 03:28:24;;;;;;;13.70;6.32;;;;;;;;;;7387101;19;20003;-73
2022/12/05 03:30:51;;;;;;;;;;;;;;;;;;7387683;19;20519;-73
2022/12/05 03:33:22;;;;;;;14.70;6.05;;;;;;;;;;7385796;19;19928;-72
2022/12/05 03:36:10;;;;;;;16.52;7.18;;;;;;;;;;7384293;19;20025;-72
2022/12/05 03:38:48;;;;;;;18.05;6.47;;;;;;;;;;7382759;19;20025;-72
2022/12/05 03:41:22;;;;;;;15.75;6.57;;;;;;;;;;7388348;19;20413;-73
2022/12/05 03:44:12;;;;;;;14.20;6.28;;;;;;;;;;7390941;19;20487;-72
2022/12/05 03:46:44;;;;;;;17.07;5.87;;;;;;;;;;7400981;19;20496;-72
2022/12/05 03:49:25;;;;;;;15.68;6.15;;;;;;;;;;7398209;19;20021;-72
2022/12/05 03:51:53;;;;;;;15.27;6.07;;;;;;;;;;7382387;19;19994;-72
2022/12/05 03:54:24;;;;;;;16.58;7.20;;;;;;;;;;7387901;19;20002;-72
2022/12/05 03:56:55;;;;;;;21.17;7.82;;;;;;;;;;7395463;19;19999;-73
2022/12/05 03:59:48;;;;;;;15.43;7.25;;;;;;;;;;7392980;19;20479;-73
2022/12/05 04:02:28;;;;;;;20.35;7.07;;;;;;;;;;7394468;19;20336;-72
2022/12/05 04:05:09;;;;;;;19.75;7.28;;;;;;;;;;7394893;19;19999;-72
2022/12/05 04:07:37;;;;;;;21.38;7.15;;;;;;;;;;7395451;19;20005;-72
2022/12/05 04:10:09;;;;;;;23.30;8.50;;;;;;;;;;7395005;19;20005;-72
2022/12/05 04:12:35;;;;;;;17.65;7.00;;;;;;;;;;7392341;19;20006;-72
2022/12/05 04:15:07;;;;;;;18.98;6.85;;;;;;;;;;7394340;19;20028;-71
2022/12/05 04:17:46;;;;;;;16.08;7.05;;;;;;;;;;7394185;19;20111;-73
2022/12/05 04:23:00;;;;;;;15.88;6.53;;;;;;;;;;7396680;19;20030;-73
2022/12/05 04:25:32;;;;;;;15.93;7.50;;;;;;;;;;7394484;19;20062;-73
2022/12/05 04:28:17;;;;;;;16.15;6.95;;;;;;;;;;7394591;19;20002;-73
2022/12/05 04:30:54;;;;;;;18.02;8.05;;;;;;;;;;7394319;19;20013;-73
2022/12/05 04:33:38;;;;;;;16.77;7.68;;;;;;;;;;7390744;19;20002;-72
2022/12/05 04:36:18;;;;;;;15.23;7.20;;;;;;;;;;7394563;19;20009;-72
2022/12/05 04:38:55;;;;;;;17.83;7.43;;;;;;;;;;7392295;19;20030;-73
2022/12/05 04:41:24;;;;;;;20.85;7.15;;;;;;;;;;7393410;19;20003;-73
2022/12/05 04:43:52;;;;;;;20.63;7.82;;;;;;;;;;7393086;19;19994;-72
2022/12/05 04:46:20;;;;;;;23.10;9.02;;;;;;;;;;7392109;19;20078;-73
2022/12/05 04:48:50;;;;;;;19.73;8.63;;;;;;;;;;7393946;19;19994;-73
2022/12/05 04:51:19;;;;;;;19.38;7.85;;;;;;;;;;7397724;19;20485;-71
2022/12/05 04:53:48;;;;;;;20.45;8.90;;;;;;;;;;7392987;19;20003;-72
2022/12/05 04:56:16;;;;;;;20.58;7.90;;;;;;;;;;7393322;19;20002;-73
2022/12/05 04:58:42;;;;;;;24.35;7.88;;;;;;;;;;7391628;19;20011;-72
2022/12/05 05:01:21;;;;;;;19.42;8.40;;;;;;;;;;7393028;19;20467;-73
2022/12/05 05:04:28;;;;;;;22.20;8.50;;;;;;;;;;7392838;19;20485;-73
2022/12/05 05:06:53;;;;;;;21.58;8.05;;;;;;;;;;7394579;19;19998;-73
2022/12/05 05:09:18;;;;;;;22.45;8.57;;;;;;;;;;7400084;19;20005;-73
2022/12/05 05:11:44;;;;;;;20.15;9.00;;;;;;;;;;7392751;19;20065;-72
2022/12/05 05:14:09;;;;;;;18.52;8.93;;;;;;;;;;7395430;19;19998;-71
2022/12/05 05:16:40;;;;;;;26.35;9.50;;;;;;;;;;7391674;19;20003;-72
2022/12/05 05:19:07;;;;;;;22.52;8.95;;;;;;;;;;7390893;19;20002;-73
2022/12/05 05:21:35;;;;;;;19.42;7.95;;;;;;;;;;7392039;19;20002;-71
2022/12/05 05:24:00;;;;;;;19.48;9.07;;;;;;;;;;7392282;19;20462;-74
2022/12/05 05:26:27;;;;;;;23.98;8.57;;;;;;;;;;7393379;19;20014;-73
2022/12/05 05:28:53;;;;;;;22.42;9.00;;;;;;;;;;7391180;19;20010;-73
2022/12/05 05:31:20;;;;;;;24.48;9.57;;;;;;;;;;7392261;19;19998;-71
2022/12/05 05:33:49;;;;;;;21.65;8.20;;;;;;;;;;7392232;19;19999;-73
2022/12/05 05:36:15;;;;;;;18.70;8.40;;;;;;;;;;7391613;19;20105;-73
2022/12/05 05:38:43;;;;;;;20.27;8.68;;;;;;;;;;7390853;19;20022;-72
2022/12/05 05:41:16;;;;;;;20.35;8.45;;;;;;;;;;7391794;19;19994;-73
2022/12/05 05:43:42;;;;;;;19.17;8.35;;;;;;;;;;7391688;19;20009;-72
2022/12/05 05:46:08;;;;;;;26.23;9.60;;;;;;;;;;7394149;19;19999;-72
2022/12/05 05:48:34;;;;;;;18.45;8.23;;;;;;;;;;7392028;19;19994;-71
2022/12/05 05:51:00;;;;;;;19.10;8.73;;;;;;;;;;7393450;19;20006;-72
2022/12/05 05:53:26;;;;;;;22.92;8.90;;;;;;;;;;7393229;19;20420;-72
2022/12/05 05:55:51;;;;;;;21.98;8.65;;;;;;;;;;7391804;19;20019;-72
2022/12/05 05:58:16;;;;;;;19.48;8.35;;;;;;;;;;7390679;19;19995;-73
2022/12/05 06:00:41;;;;;;;25.55;9.77;;;;;;;;;;7391374;19;20198;-72
2022/12/05 06:03:07;;;;;;;24.23;9.88;;;;;;;;;;7389078;19;20353;-73
2022/12/05 06:05:32;;;;;;;22.45;9.15;;;;;;;;;;7389596;19;20013;-73
2022/12/05 06:07:58;;;;;;;24.83;9.40;;;;;;;;;;7391592;19;19999;-72
2022/12/05 06:10:23;;;;;;;24.55;9.55;;;;;;;;;;7394623;19;20001;-73
2022/12/05 06:12:49;;;;;;;22.63;10.70;;;;;;;;;;7381569;19;20062;-73
2022/12/05 06:15:14;;;;;;;22.98;9.90;;;;;;;;;;7393763;19;19998;-73
2022/12/05 06:17:39;;;;;;;25.98;10.80;;;;;;;;;;7387472;19;19991;-73
2022/12/05 06:20:05;;;;;;;27.27;10.10;;;;;;;;;;7392516;19;20086;-73
2022/12/05 06:22:33;;;;;;;23.30;9.65;;;;;;;;;;7392871;19;20002;-72
2022/12/05 06:24:59;;;;;;;23.23;9.30;;;;;;;;;;7391658;19;19997;-72
2022/12/05 06:27:24;;;;;;;23.67;8.77;;;;;;;;;;7393657;19;20003;-71
2022/12/05 06:29:50;;;;;;;25.15;9.45;;;;;;;;;;7392761;19;19991;-73
2022/12/05 06:32:15;;;;;;;30.05;9.60;;;;;;;;;;7384970;19;20488;-73
2022/12/05 06:34:41;;;;;;;26.65;10.43;;;;;;;;;;7388008;19;20022;-72
2022/12/05 06:37:06;;;;;;;19.95;8.23;;;;;;;;;;7386183;19;19998;-73
2022/12/05 06:39:32;;;;;;;21.50;9.13;;;;;;;;;;7388379;19;20093;-74
2022/12/05 06:41:57;;;;;;;21.80;9.43;;;;;;;;;;7388373;19;19998;-73
2022/12/05 06:44:25;;;;;;;21.98;9.30;;;;;;;;;;7388574;19;19991;-71
2022/12/05 06:46:52;;;;;;;25.10;9.02;;;;;;;;;;7392850;19;20001;-72
2022/12/05 06:49:17;;;;;;;22.40;9.40;;;;;;;;;;7389740;19;20373;-73
2022/12/05 06:51:43;;;;;;;23.63;9.98;;;;;;;;;;7389385;19;19991;-72
2022/12/05 06:54:10;;;;;;;21.35;8.45;;;;;;;;;;7390813;19;20424;-74
2022/12/05 06:56:36;;;;;;;19.98;8.40;;;;;;;;;;7392071;19;19994;-71
2022/12/05 06:59:01;;;;;;;24.77;8.65;;;;;;;;;;7391897;19;19995;-73
2022/12/05 07:01:39;;;;;;;23.27;8.13;;;;;;;;;;7391830;19;20344;-73
2022/12/05 07:04:34;;;;;;;16.05;7.38;;;;;;;;;;7390629;19;20061;-71
2022/12/05 07:07:01;;;;;;;20.08;8.15;;;;;;;;;;7390655;19;20423;-73
2022/12/05 07:09:47;;;;;;;19.35;7.07;;;;;;;;;;7391060;19;20009;-73
2022/12/05 07:12:15;;;;;;;28.15;8.95;;;;;;;;;;7390693;19;20349;-73
2022/12/05 07:14:42;;;;;;;16.92;8.07;;;;;;;;;;7391251;19;19999;-73
2022/12/05 07:17:07;;;;;;;25.60;9.23;;;;;;;;;;7389457;19;20066;-74
2022/12/05 07:19:32;;;;;;;22.95;8.35;;;;;;;;;;7387707;19;20395;-73
2022/12/05 07:21:58;;;;;;;21.13;9.18;;;;;;;;;;7387808;19;19999;-73
2022/12/05 07:24:23;;;;;;;18.52;8.65;;;;;;;;;;7388127;19;19991;-72
2022/12/05 07:26:48;;;;;;;25.23;8.50;;;;;;;;;;7388925;19;20695;-72
2022/12/05 07:29:14;;;;;;;29.85;10.25;;;;;;;;;;7386976;19;20012;-72
2022/12/05 07:31:39;;;;;;;26.23;10.35;;;;;;;;;;7388620;19;20003;-73
2022/12/05 07:34:04;;;;;;;29.23;11.25;;;;;;;;;;7388575;19;20046;-73
2022/12/05 07:36:31;;;;;;;25.90;10.30;;;;;;;;;;7390708;19;20001;-74
2022/12/05 07:38:59;;;;;;;25.30;10.35;;;;;;;;;;7390798;19;20023;-73
2022/12/05 07:41:28;;;;;;;28.17;11.15;;;;;;;;;;7389732;19;20443;-73
2022/12/05 07:43:55;;;;;;;25.52;10.52;;;;;;;;;;7391467;19;19995;-73
2022/12/05 07:46:21;;;;;;;29.10;10.15;;;;;;;;;;7391742;19;19994;-73
2022/12/05 07:48:47;;;;;;;27.33;10.80;;;;;;;;;;7399936;19;20412;-73
2022/12/05 07:51:13;;;;;;;27.80;10.40;;;;;;;;;;7397093;19;20005;-71
2022/12/05 07:53:41;;;;;;;30.95;11.60;;;;;;;;;;7385888;19;20018;-73
2022/12/05 07:56:08;;;;;;;27.10;10.82;;;;;;;;;;7388739;19;20002;-72
2022/12/05 07:58:34;;;;;;;23.35;10.98;;;;;;;;;;7389383;19;19995;-72
2022/12/05 08:01:27;;;;;;;29.42;12.70;;;;;;;;;;7390674;19;19998;-74
2022/12/05 08:03:54;;;;;;;32.33;12.50;;;;;;;;;;7389334;19;20002;-73
2022/12/05 08:06:25;;;;;;;30.75;12.63;;;;;;;;;;7389501;19;20006;-73
2022/12/05 08:08:51;;;;;;;30.73;11.88;;;;;;;;;;7389921;19;20095;-73
2022/12/05 08:11:19;;;;;;;30.77;12.25;;;;;;;;;;7388251;19;19999;-73
2022/12/05 08:13:45;;;;;;;35.85;13.38;;;;;;;;;;7380862;19;20127;-73
2022/12/05 08:16:13;;;;;;;31.33;12.48;;;;;;;;;;7388898;19;20018;-72
2022/12/05 08:18:41;;;;;;;37.90;13.43;;;;;;;;;;7385955;19;20069;-72
2022/12/05 08:21:12;;;;;;;31.95;12.55;;;;;;;;;;7390901;19;20003;-72
2022/12/05 08:23:38;;;;;;;31.70;12.70;;;;;;;;;;7385663;19;20464;-71
2022/12/05 08:26:07;;;;;;;35.13;13.80;;;;;;;;;;7390713;19;20005;-71
2022/12/05 08:28:33;;;;;;;33.33;12.27;;;;;;;;;;7388551;19;20003;-72
2022/12/05 08:31:03;;;;;;;37.13;13.88;;;;;;;;;;7387983;19;20005;-72
2022/12/05 08:33:29;;;;;;;34.80;13.35;;;;;;;;;;7387332;19;20040;-70
2022/12/05 08:35:54;;;;;;;35.63;12.82;;;;;;;;;;7390390;19;20468;-72
2022/12/05 08:38:19;;;;;;;32.67;11.90;;;;;;;;;;7389182;19;20016;-74
2022/12/05 08:40:46;;;;;;;31.30;12.80;;;;;;;;;;7393620;19;20480;-69
2022/12/05 08:43:12;;;;;;;34.08;13.10;;;;;;;;;;7396336;19;20009;-73
2022/12/05 08:45:37;;;;;;;34.13;12.57;;;;;;;;;;7395260;19;20448;-72
2022/12/05 08:48:02;;;;;;;38.63;13.35;;;;;;;;;;7396701;19;20460;-73
2022/12/05 08:50:28;;;;;;;33.45;13.30;;;;;;;;;;7396728;19;19990;-72
2022/12/05 08:52:53;;;;;;;35.00;12.70;;;;;;;;;;7391376;19;20003;-71
2022/12/05 08:55:18;;;;;;;37.88;14.15;;;;;;;;;;7396142;19;19998;-73
2022/12/05 08:57:44;;;;;;;39.47;12.82;;;;;;;;;;7395330;19;20002;-72
2022/12/05 09:00:09;;;;;;;40.03;13.07;;;;;;;;;;7394848;19;20353;-73
2022/12/05 09:02:35;;;;;;;36.55;13.18;;;;;;;;;;7394153;19;20001;-73
2022/12/05 09:05:00;;;;;;;36.92;13.55;;;;;;;;;;7395519;19;19986;-75
2022/12/05 09:07:25;;;;;;;32.50;12.73;;;;;;;;;;7394075;19;20005;-75
2022/12/05 09:09:51;;;;;;;29.73;12.48;;;;;;;;;;7396407;19;20116;-73
2022/12/05 09:12:16;;;;;;;29.67;12.85;;;;;;;;;;7394742;19;20325;-75
2022/12/05 09:14:41;;;;;;;36.42;13.48;;;;;;;;;;7396395;19;19997;-77
2022/12/05 09:17:07;;;;;;;37.60;13.70;;;;;;;;;;7395467;19;20329;-77
2022/12/05 09:19:32;;;;;;;35.60;12.48;;;;;;;;;;7392390;19;19999;-72
2022/12/05 09:21:57;;;;;;;35.33;13.27;;;;;;;;;;7392630;19;20003;-73
2022/12/05 09:24:23;;;;;;;31.58;13.38;;;;;;;;;;7395189;19;19998;-73
2022/12/05 09:26:49;;;;;;;33.20;12.75;;;;;;;;;;7394997;19;20002;-72
2022/12/05 09:29:14;;;;;;;33.17;12.80;;;;;;;;;;7393736;19;20002;-78
2022/12/05 09:31:41;;;;;;;31.38;13.68;;;;;;;;;;7393850;19;20022;-75
2022/12/05 09:34:07;;;;;;;36.70;14.45;;;;;;;;;;7394481;19;19994;-76
2022/12/05 09:36:33;;;;;;;28.42;12.65;;;;;;;;;;7394637;19;20042;-76
2022/12/05 09:39:00;;;;;;;33.53;13.70;;;;;;;;;;7393393;19;19999;-75
2022/12/05 09:42:04;;;;;;;33.08;13.90;;;;;;;;;;7393480;19;19991;-76
2022/12/05 09:44:47;;;;;;;30.63;12.40;;;;;;;;;;7395239;19;20349;-74
2022/12/05 09:47:22;;;;;;;37.05;13.80;;;;;;;;;;7394135;19;19998;-73
2022/12/05 09:50:11;;;;;;;34.05;13.23;;;;;;;;;;7392768;19;19994;-74
2022/12/05 09:52:40;;;;;;;32.58;13.73;;;;;;;;;;7390706;19;20009;-73
2022/12/05 09:55:12;;;;;;;33.47;13.60;;;;;;;;;;7393214;19;20003;-72
2022/12/05 09:57:44;;;;;;;32.58;13.18;;;;;;;;;;7393801;19;20439;-73
2022/12/05 10:00:10;;;;;;;30.67;12.35;;;;;;;;;;7396440;19;19998;-74
2022/12/05 10:02:47;;;;;;;34.60;14.20;;;;;;;;;;7393571;19;19995;-73
2022/12/05 10:05:22;;;;;;;31.00;13.05;;;;;;;;;;7395153;19;20005;-72
2022/12/05 10:08:16;;;;;;;34.03;12.40;;;;;;;;;;7393626;19;20070;-73
2022/12/05 10:11:10;;;;;;;31.10;13.48;;;;;;;;;;7393828;19;20010;-72
2022/12/05 10:13:57;;;;;;;33.25;14.02;;;;;;;;;;7390333;19;19999;-72
2022/12/05 10:16:31;;;;;;;28.00;13.50;;;;;;;;;;7394309;19;20002;-71
2022/12/05 10:19:11;;;;;;;28.10;12.30;;;;;;;;;;7392515;19;20006;-75
2022/12/05 10:21:48;;;;;;;27.15;11.85;;;;;;;;;;7392158;19;20005;-73
2022/12/05 10:24:32;;;;;;;31.52;11.75;;;;;;;;;;7391148;19;20005;-71
2022/12/05 10:27:05;;;;;;;28.63;11.77;;;;;;;;;;7394213;19;20005;-74
2022/12/05 10:29:37;;;;;;;26.92;12.70;;;;;;;;;;7393714;19;20397;-72
2022/12/05 10:32:18;;;;;;;30.33;12.30;;;;;;;;;;7393203;19;20028;-73
2022/12/05 10:34:44;;;;;;;28.77;11.75;;;;;;;;;;7390640;19;20001;-74
2022/12/05 10:37:18;;;;;;;31.55;12.07;;;;;;;;;;7393430;19;20005;-74
2022/12/05 10:39:46;;;;;;;24.40;11.00;;;;;;;;;;7391554;19;19998;-73
2022/12/05 10:42:16;;;;;;;25.98;11.30;;;;;;;;;;7391062;19;20325;-72
2022/12/05 10:44:42;;;;;;;28.83;12.65;;;;;;;;;;7390533;19;20027;-71
2022/12/05 10:47:08;;;;;;;27.15;11.35;;;;;;;;;;7392726;19;19998;-73
2022/12/05 10:49:34;;;;;;;24.90;11.18;;;;;;;;;;7389128;19;20015;-73
2022/12/05 10:51:59;;;;;;;24.73;11.82;;;;;;;;;;7391416;19;19998;-72
2022/12/05 10:54:29;;;;;;;23.50;10.30;;;;;;;;;;7390255;19;20011;-73
2022/12/05 10:56:55;;;;;;;24.33;10.73;;;;;;;;;;7391568;19;19999;-72
2022/12/05 10:59:23;;;;;;;27.58;11.05;;;;;;;;;;7383380;19;19999;-73
2022/12/05 11:01:56;;;;;;;24.33;10.75;;;;;;;;;;7385611;19;20007;-74
2022/12/05 11:04:29;;;;;;;22.83;10.90;;;;;;;;;;7384855;19;20110;-72
2022/12/05 11:07:02;;;;;;;22.92;10.70;;;;;;;;;;7387948;19;20007;-73
2022/12/05 11:09:31;;;;;;;29.95;9.85;;;;;;;;;;7390651;19;19998;-73
2022/12/05 11:12:08;;;;;;;30.02;11.20;;;;;;;;;;7390420;19;20018;-73
2022/12/05 11:14:35;;;;;;;23.17;11.63;;;;;;;;;;7387556;19;19998;-77
2022/12/05 11:17:02;;;;;;;22.55;10.35;;;;;;;;;;7390177;19;20018;-73
2022/12/05 11:19:36;;;;;;;22.40;9.48;;;;;;;;;;7389116;19;19995;-72
2022/12/05 11:22:03;;;;;;;21.52;10.05;;;;;;;;;;7389178;19;20492;-73
2022/12/05 11:24:37;;;;;;;26.20;11.00;;;;;;;;;;7392228;19;19998;-74
2022/12/05 11:27:14;;;;;;;19.20;9.13;;;;;;;;;;7388259;19;20321;-74
2022/12/05 11:29:40;;;;;;;22.70;10.07;;;;;;;;;;7388663;19;20512;-73
2022/12/05 11:32:17;;;;;;;25.10;9.23;;;;;;;;;;7391840;19;20002;-72
2022/12/05 11:35:06;;;;;;;25.27;9.93;;;;;;;;;;7389033;19;20070;-72
2022/12/05 11:37:36;;;;;;;24.58;9.70;;;;;;;;;;7389936;19;19990;-72
2022/12/05 11:40:11;;;;;;;22.88;9.45;;;;;;;;;;7390468;19;19991;-72
2022/12/05 11:43:08;;;;;;;20.52;9.57;;;;;;;;;;7387024;19;20364;-71
2022/12/05 11:46:13;;;;;;;24.00;9.73;;;;;;;;;;7387923;19;20471;-72
2022/12/05 11:49:22;;;;;;;24.48;8.82;;;;;;;;;;7385270;19;20003;-72
2022/12/05 11:51:53;;;;;;;23.70;9.35;;;;;;;;;;7389339;19;20519;-72
2022/12/05 11:55:04;;;;;;;26.10;9.73;;;;;;;;;;7390350;19;20023;-72
2022/12/05 11:58:07;;;;;;;24.67;12.93;;;;;;;;;;7387648;19;20006;-72
2022/12/05 12:00:38;;;;;;;22.40;9.50;;;;;;;;;;7389031;19;19994;-72
2022/12/05 12:03:18;;;;;;;21.92;9.57;;;;;;;;;;7386718;19;19998;-73
2022/12/05 12:05:55;;;;;;;22.30;8.93;;;;;;;;;;7388932;19;19999;-72
2022/12/05 12:08:27;;;;;;;24.77;9.55;;;;;;;;;;7388374;19;20296;-73
2022/12/05 12:11:23;;;;;;;23.60;9.80;;;;;;;;;;7387005;19;19998;-72
2022/12/05 12:14:17;;;;;;;18.70;8.80;;;;;;;;;;7390861;19;19994;-73
2022/12/05 12:16:58;;;;;;;21.02;9.88;;;;;;;;;;7396831;19;19995;-72
2022/12/05 12:19:23;;;;;;;18.90;8.48;;;;;;;;;;7393729;19;19990;-73
2022/12/05 12:22:01;;;;;;;24.08;9.20;;;;;;;;;;7394874;19;20001;-72
2022/12/05 12:24:40;;;;;;;20.67;8.52;;;;;;;;;;7397488;19;19994;-72
2022/12/05 12:27:23;;;;;;;24.35;9.95;;;;;;;;;;7396492;19;20003;-73
2022/12/05 12:29:58;;;;;;;23.13;9.52;;;;;;;;;;7396536;19;19995;-73
2022/12/05 12:32:29;;;;;;;23.45;8.68;;;;;;;;;;7397185;19;20029;-73
2022/12/05 12:35:07;;;;;;;21.17;8.80;;;;;;;;;;7396612;19;19999;-73
2022/12/05 12:37:50;;;;;;;21.50;8.70;;;;;;;;;;7396657;19;20467;-73
2022/12/05 12:40:45;;;;;;;29.95;11.18;;;;;;;;;;7398074;19;19994;-73
2022/12/05 12:43:47;;;;;;;23.08;9.98;;;;;;;;;;7393062;19;20070;-73
2022/12/05 12:46:28;;;;;;;19.98;9.15;;;;;;;;;;7398212;19;19998;-73
2022/12/05 12:49:11;;;;;;;23.08;9.85;;;;;;;;;;7394864;19;20019;-73
2022/12/05 12:51:44;;;;;;;26.85;10.30;;;;;;;;;;7397130;19;19995;-72
2022/12/05 12:54:18;;;;;;;25.25;10.70;;;;;;;;;;7396931;19;19994;-72
2022/12/05 12:56:54;;;;;;;29.38;10.77;;;;;;;;;;7393242;19;20005;-72
2022/12/05 12:59:31;;;;;;;24.10;9.82;;;;;;;;;;7392109;19;20039;-73
2022/12/05 13:02:44;;;;;;;22.13;10.38;;;;;;;;;;7394661;19;20387;-72
2022/12/05 13:05:21;;;;;;;26.15;9.85;;;;;;;;;;7393499;19;20007;-71
2022/12/05 13:07:52;;;;;;;27.70;9.55;;;;;;;;;;7397874;19;19998;-72
2022/12/05 13:10:33;;;;;;;27.42;10.73;;;;;;;;;;7396650;19;20006;-72
2022/12/05 13:13:01;;;;;;;21.77;9.27;;;;;;;;;;7393740;19;20094;-72
2022/12/05 13:15:39;;;;;;;24.90;9.32;;;;;;;;;;7395280;19;20002;-73
2022/12/05 13:18:10;;;;;;;25.77;9.70;;;;;;;;;;7395495;19;20093;-73
2022/12/05 13:20:36;;;;;;;24.08;9.75;;;;;;;;;;7395890;19;20023;-72
2022/12/05 13:23:03;;;;;;;22.92;10.60;;;;;;;;;;7391214;19;20134;-72
2022/12/05 13:25:32;;;;;;;22.58;9.25;;;;;;;;;;7392470;19;20009;-72
2022/12/05 13:28:01;;;;;;;20.90;8.38;;;;;;;;;;7392164;19;20016;-72
2022/12/05 13:30:28;;;;;;;20.98;10.18;;;;;;;;;;7394940;19;20019;-72
2022/12/05 13:32:56;;;;;;;21.63;8.75;;;;;;;;;;7390709;19;20007;-72
2022/12/05 13:43:54;;;;;;;18.65;8.88;;;;;;;;;;7393856;19;20015;-72
2022/12/05 13:46:30;;;;;;;21.38;9.10;;;;;;;;;;7393506;19;20007;-72
2022/12/05 13:49:02;;;;;;;21.30;9.27;;;;;;;;;;7392910;19;20006;-72
2022/12/05 13:51:41;;;;;;;22.55;9.20;;;;;;;;;;7393239;19;20015;-74
2022/12/05 13:54:12;;;;;;;20.40;8.82;;;;;;;;;;7386015;19;20010;-75
2022/12/05 13:56:48;;;;;;;;;;;;;;;;;;7394243;19;20034;-75
2022/12/05 13:59:52;;;;;;;26.25;9.20;;;;;;;;;;7390486;19;19926;-75
2022/12/05 14:02:42;;;;;;;73.15;29.40;;;;;;;;;;7392579;19;20063;-76
2022/12/05 14:05:38;;;;;;;40.08;18.23;;;;;;;;;;7389790;19;20551;-74
2022/12/05 14:08:30;;;;;;;28.65;13.52;;;;;;;;;;7392859;19;19999;-73
2022/12/05 14:10:55;;;;;;;33.42;18.92;;;;;;;;;;7388939;19;20066;-72
2022/12/05 14:13:21;;;;;;;27.67;12.55;;;;;;;;;;7388499;19;20525;-74
2022/12/05 14:15:50;;;;;;;31.08;13.98;;;;;;;;;;7392676;19;19995;-74
2022/12/05 14:18:22;;;;;;;24.23;10.77;;;;;;;;;;7392960;19;20094;-73
2022/12/05 14:21:07;;;;;;;24.30;12.10;;;;;;;;;;7392086;19;20006;-73
2022/12/05 14:23:43;;;;;;;24.90;10.07;;;;;;;;;;7391046;19;20003;-71
2022/12/05 14:26:30;;;;;;;22.20;10.50;;;;;;;;;;7393572;19;19998;-73
2022/12/05 14:29:02;;;;;;;28.48;10.65;;;;;;;;;;7390742;19;20472;-73
2022/12/05 14:31:49;;;;;;;23.02;9.43;;;;;;;;;;7392832;19;20443;-75
2022/12/05 14:34:23;;;;;;;25.50;10.23;;;;;;;;;;7390702;19;20066;-73
2022/12/05 14:37:15;;;;;;;25.42;10.23;;;;;;;;;;7391744;19;20003;-72
2022/12/05 14:39:45;;;;;;;24.35;9.55;;;;;;;;;;7385325;19;19995;-74
2022/12/05 14:42:34;;;;;;;21.73;9.82;;;;;;;;;;7392023;19;20006;-74
2022/12/05 14:45:02;;;;;;;21.25;9.25;;;;;;;;;;7392301;19;20036;-74
2022/12/05 14:47:31;;;;;;;25.30;10.18;;;;;;;;;;7392726;19;19995;-75
2022/12/05 14:50:32;;;;;;;22.60;9.40;;;;;;;;;;7391387;19;19994;-74
2022/12/05 14:53:19;;;;;;;21.37;9.47;;;;;;;;;;7388569;19;20002;-75
2022/12/05 14:55:47;;;;;;;25.83;9.77;;;;;;;;;;7391739;19;20252;-74
2022/12/05 14:58:18;;;;;;;23.88;9.70;;;;;;;;;;7391509;19;20035;-72
2022/12/05 15:00:52;;;;;;;35.35;10.27;;;;;;;;;;7391492;19;19997;-74
2022/12/05 15:03:23;;;;;;;24.42;10.63;;;;;;;;;;7388457;19;20447;-75
2022/12/05 15:05:49;;;;;;;19.98;9.82;;;;;;;;;;7389211;19;20015;-70